Lamar, CO (81052)

9:56 PM MDT on August 31, 2015 (GMT -0600)
Lamar Municipal | | Change Station
CLOSE
Current Station
Airport
Location: Lamar,
Elevation: 3704 ft
Nearby Weather Stations

Elev 3704 ft 38.07 °N, 102.69 °W | Updated 3 minutes ago

Partly Cloudy
Partly Cloudy
74 °F
Feels Like 74 °F
N
20
Wind Variable Wind from North
Gusts 30 mph

Today
High -- | Low -- °F
--% Chance of Precip.
Yesterday
High -- | Low -- °F
Precip. -- in
6:19 AM 7:21 PM
Waning Gibbous, 92% visible
Pressure 29.83 in
Visibility 9.0 miles
Clouds Clear
Dew Point 57 °F
Humidity 55%
Rainfall 0.00 in
Snow Depth Not available.
UV 0 out of 12
Pollen 10.40 out of 12
Air Quality Not available.
Flu Activity Not available.
METAR KLAA 010353Z AUTO 35017G26KT 9SM CLR 23/14 A2997 RMK AO2 PK WND 36031/0335 SLP100 T02330139 TSNO
Pressure 29.83 in
Visibility 9.0 miles
Clouds Clear
Dew Point 57 °F
Humidity 55%
Rainfall 0.00 in
Snow Depth Not available.
UV 0 out of 12
Pollen 10.40 out of 12
Air Quality Not available.
Flu Activity Not available.
METAR KLAA 010353Z AUTO 35017G26KT 9SM CLR 23/14 A2997 RMK AO2 PK WND 36031/0335 SLP100 T02330139 TSNO

10-Day Weather Forecast

×

Almanac

Astronomy

Aug. 31, 2015 Rise Set
Actual Time
Civil Twilight
Nautical Twilight
Astronomical Twilight
Moon
Length of Visible Light
Length of Day
Tomorrow will be .
, % of the Moon is Illuminated

Today's Extremes

State Highs State Lows

Community

WunderPhotos

Upload Photos

1,851,475 photos uploaded!

WunderBlogs® & News

Nearby

Air Quality

  Air Quality AQ Index Pollutant
Not available.

Snow Depth

Station Depth Elevation

Earthquake Activity

City Distance Mag. Time & Date
Minimum magnitude displayed is 2.5.

Coastal Water Temperatures

Place Temperature

Stations

Nearby Weather Stations

Station Location Temp. Windchill Dew Point Humidity Wind Precip. Elev Updated Type